createdAt,value
2019-02-10T00:00:12.840Z,73.50
2019-02-10T00:02:57.954Z,73.70
2019-02-10T00:05:43.358Z,73.60
2019-02-10T00:08:28.525Z,73.80
2019-02-10T00:11:33.536Z,73.80
2019-02-10T00:14:18.559Z,74.20
2019-02-10T00:17:03.688Z,73.90
2019-02-10T00:19:55.321Z,73.70
2019-02-10T00:22:40.618Z,73.60
2019-02-10T00:25:25.910Z,73.80
2019-02-10T00:28:11.103Z,73.60
2019-02-10T00:30:56.380Z,73.50
2019-02-10T00:33:41.865Z,73.40
2019-02-10T00:36:32.897Z,73.10
2019-02-10T00:39:14.108Z,73.40
2019-02-10T00:41:59.446Z,73.20
2019-02-10T00:44:44.747Z,73.30
2019-02-10T00:47:29.678Z,73.30
2019-02-10T00:50:14.927Z,73.40
2019-02-10T00:53:00.120Z,73.60
2019-02-10T00:55:45.468Z,73.70
2019-02-10T00:58:30.716Z,73.80
2019-02-10T01:01:16.458Z,74.00
2019-02-10T01:04:01.396Z,74.10
2019-02-10T01:06:46.421Z,74.40
2019-02-10T01:09:31.335Z,74.50
2019-02-10T01:12:16.583Z,74.60
2019-02-10T01:15:02.038Z,75.00
2019-02-10T01:17:47.242Z,74.90
2019-02-10T01:20:33.101Z,75.10
2019-02-10T01:23:18.946Z,75.10
2019-02-10T01:26:04.351Z,75.20
2019-02-10T01:28:49.519Z,74.90
2019-02-10T01:31:34.779Z,75.20
2019-02-10T01:34:19.919Z,75.20
2019-02-10T01:37:05.347Z,75.10
2019-02-10T01:39:50.503Z,75.10
2019-02-10T01:42:35.889Z,75.10
2019-02-10T01:45:20.992Z,75.10
2019-02-10T01:48:06.240Z,75.00
2019-02-10T01:50:51.562Z,74.90
2019-02-10T01:53:36.738Z,75.00
2019-02-10T01:56:22.064Z,74.90
2019-02-10T01:59:07.488Z,74.80
2019-02-10T02:01:52.690Z,74.70
2019-02-10T02:04:37.926Z,74.40
2019-02-10T02:07:23.447Z,74.50
2019-02-10T02:10:11.998Z,74.60
2019-02-10T02:12:57.023Z,74.60
2019-02-10T02:15:42.222Z,74.40
2019-02-10T02:18:27.404Z,74.30
2019-02-10T02:21:12.357Z,74.20
2019-02-10T02:23:57.305Z,74.10
2019-02-10T02:26:42.493Z,74.10
2019-02-10T02:29:27.771Z,74.10
2019-02-10T02:32:13.071Z,74.20
2019-02-10T02:34:58.543Z,74.30
2019-02-10T02:37:43.889Z,74.70
2019-02-10T02:40:28.994Z,74.40
2019-02-10T02:43:14.360Z,74.60
2019-02-10T02:45:59.620Z,74.50
2019-02-10T02:48:44.722Z,74.40
2019-02-10T02:51:30.289Z,74.30
2019-02-10T02:54:15.510Z,74.30
2019-02-10T02:57:00.898Z,74.30
2019-02-10T02:59:46.050Z,74.40
2019-02-10T03:02:31.048Z,74.80
2019-02-10T03:05:16.484Z,74.70
2019-02-10T03:08:01.626Z,74.60
2019-02-10T03:10:47.133Z,75.30
2019-02-10T03:13:32.517Z,74.50
2019-02-10T03:16:17.729Z,74.70
2019-02-10T03:19:03.666Z,74.80
2019-02-10T03:21:48.690Z,74.50
2019-02-10T03:24:34.196Z,74.70
2019-02-10T03:27:19.439Z,74.80
2019-02-10T03:30:10.374Z,74.80
2019-02-10T03:32:55.775Z,74.90
2019-02-10T03:35:40.697Z,75.00
2019-02-10T03:38:25.779Z,75.10
2019-02-10T03:41:10.922Z,75.30
2019-02-10T03:43:55.820Z,75.50
2019-02-10T03:46:40.820Z,75.60
2019-02-10T03:49:26.575Z,75.70
2019-02-10T03:52:11.992Z,75.80
2019-02-10T03:54:57.482Z,75.80
2019-02-10T03:57:42.578Z,76.10
2019-02-10T04:00:27.865Z,76.20
2019-02-10T04:03:12.996Z,76.40
2019-02-10T04:05:59.068Z,76.40
2019-02-10T04:08:44.134Z,76.50
2019-02-10T04:11:29.555Z,76.70
2019-02-10T04:14:14.757Z,76.70
2019-02-10T04:17:00.070Z,76.90
2019-02-10T04:19:45.222Z,77.20
2019-02-10T04:22:50.255Z,77.50
2019-02-10T04:25:35.243Z,77.30
2019-02-10T04:28:20.536Z,77.60
2019-02-10T04:31:05.598Z,77.90
2019-02-10T04:33:50.931Z,78.20
2019-02-10T04:36:36.267Z,78.10
2019-02-10T04:39:21.592Z,78.20
2019-02-10T04:42:06.601Z,78.30
2019-02-10T04:44:51.405Z,78.30
2019-02-10T04:47:36.362Z,78.40
2019-02-10T04:50:21.543Z,78.70
2019-02-10T04:53:06.706Z,78.90
2019-02-10T04:56:12.416Z,78.70
2019-02-10T04:58:57.628Z,79.10
2019-02-10T05:01:42.964Z,78.90
2019-02-10T05:04:28.025Z,79.00
2019-02-10T05:07:13.355Z,79.10
2019-02-10T05:09:58.913Z,79.00
2019-02-10T05:12:43.714Z,78.90
2019-02-10T05:15:38.510Z,78.90
2019-02-10T05:18:24.014Z,78.70
2019-02-10T05:21:09.666Z,78.70
2019-02-10T05:24:03.181Z,79.30
2019-02-10T05:26:41.741Z,79.10
2019-02-10T05:29:26.939Z,79.00
2019-02-10T05:32:12.428Z,80.00
2019-02-10T05:34:57.629Z,79.20
2019-02-10T05:37:42.842Z,79.10
2019-02-10T05:40:27.963Z,79.00
2019-02-10T05:43:13.699Z,79.20
2019-02-10T05:45:59.045Z,79.30
2019-02-10T05:48:44.237Z,79.40
2019-02-10T05:51:29.420Z,79.30
2019-02-10T05:54:14.526Z,79.30
2019-02-10T05:56:59.686Z,79.30
2019-02-10T05:59:44.939Z,79.40
2019-02-10T06:02:30.814Z,80.10
2019-02-10T06:05:19.489Z,79.30
2019-02-10T06:08:12.718Z,79.70
2019-02-10T06:10:51.503Z,79.70
2019-02-10T06:13:36.613Z,79.50
2019-02-10T06:16:21.900Z,79.60
2019-02-10T06:19:07.160Z,79.60
2019-02-10T06:21:52.178Z,79.90
2019-02-10T06:24:38.148Z,79.80
2019-02-10T06:27:23.422Z,79.70
2019-02-10T06:30:09.809Z,79.70
2019-02-10T06:32:54.835Z,80.00
2019-02-10T06:35:40.130Z,79.70
2019-02-10T06:38:24.903Z,79.60
2019-02-10T06:41:09.933Z,79.50
2019-02-10T06:43:55.099Z,79.60
2019-02-10T06:46:40.455Z,80.00
2019-02-10T06:49:25.482Z,80.00
2019-02-10T06:52:10.653Z,79.80
2019-02-10T06:54:55.815Z,80.10
2019-02-10T06:57:41.050Z,79.60
2019-02-10T07:00:28.027Z,79.80
2019-02-10T07:03:32.926Z,79.80
2019-02-10T07:06:18.022Z,79.90
2019-02-10T07:09:05.046Z,79.20
2019-02-10T07:11:50.012Z,78.80
2019-02-10T07:14:35.204Z,78.60
2019-02-10T07:17:24.252Z,78.40
2019-02-10T07:20:33.126Z,78.60
2019-02-10T07:23:38.633Z,78.10
2019-02-10T07:26:27.445Z,77.80
2019-02-10T07:29:19.535Z,78.10
2019-02-10T07:32:06.583Z,77.40
2019-02-10T07:35:18.162Z,77.30
2019-02-10T07:38:06.852Z,77.90
2019-02-10T07:40:58.861Z,77.70
2019-02-10T07:44:13.577Z,77.10
2019-02-10T07:47:05.001Z,77.60
2019-02-10T07:50:02.827Z,77.30
2019-02-10T07:52:54.760Z,77.50
2019-02-10T07:56:02.138Z,77.60
2019-02-10T07:58:51.516Z,77.20
2019-02-10T08:01:46.111Z,76.10
2019-02-10T08:04:41.109Z,75.60
2019-02-10T08:07:47.622Z,75.10
2019-02-10T08:10:58.032Z,75.10
2019-02-10T08:13:52.432Z,74.70
2019-02-10T08:16:50.544Z,74.50
2019-02-10T08:19:39.294Z,74.20
2019-02-10T08:22:40.198Z,73.50
2019-02-10T08:25:48.766Z,73.40
2019-02-10T08:28:50.300Z,72.80
2019-02-10T08:31:48.540Z,72.30
2019-02-10T08:34:40.615Z,71.80
2019-02-10T08:37:41.243Z,71.80
2019-02-10T08:40:51.063Z,71.70
2019-02-10T08:43:48.939Z,70.90
2019-02-10T08:47:01.048Z,70.50
2019-02-10T08:50:09.854Z,71.30
2019-02-10T08:52:58.655Z,70.70
2019-02-10T08:55:44.252Z,70.20
2019-02-10T08:58:29.394Z,69.50
2019-02-10T09:01:14.404Z,68.50
2019-02-10T09:03:59.865Z,68.60
2019-02-10T09:06:45.275Z,67.70
2019-02-10T09:09:30.323Z,67.10
2019-02-10T09:12:15.893Z,66.10
2019-02-10T09:15:01.035Z,66.40
2019-02-10T09:17:46.252Z,65.50
2019-02-10T09:20:32.539Z,65.30
2019-02-10T09:23:17.630Z,65.00
2019-02-10T09:26:03.632Z,64.20
2019-02-10T09:28:48.598Z,64.10
2019-02-10T09:31:34.140Z,64.10
2019-02-10T09:34:19.190Z,64.00
2019-02-10T09:37:04.270Z,63.00
2019-02-10T09:39:49.615Z,61.40
2019-02-10T09:42:34.747Z,59.90
2019-02-10T09:45:20.625Z,59.90
2019-02-10T09:48:05.720Z,58.80
2019-02-10T09:50:51.337Z,59.50
2019-02-10T09:53:36.639Z,59.20
2019-02-10T09:56:21.849Z,58.60
2019-02-10T09:59:07.163Z,58.70
2019-02-10T10:01:52.755Z,57.60
2019-02-10T10:04:38.187Z,57.30
2019-02-10T10:07:23.009Z,57.10
2019-02-10T10:10:11.014Z,56.80
2019-02-10T10:12:56.668Z,56.30
2019-02-10T10:15:42.032Z,55.70
2019-02-10T10:18:27.067Z,55.80
2019-02-10T10:21:12.426Z,55.10
2019-02-10T10:23:57.816Z,56.10
2019-02-10T10:26:43.574Z,55.40
2019-02-10T10:29:28.880Z,55.50
2019-02-10T10:32:14.145Z,54.80
2019-02-10T10:34:58.937Z,55.30
2019-02-10T10:37:44.174Z,54.30
2019-02-10T10:40:28.924Z,54.60
2019-02-10T10:43:13.833Z,55.00
2019-02-10T10:46:00.720Z,55.40
2019-02-10T10:48:46.066Z,55.10
2019-02-10T10:51:31.117Z,56.10
2019-02-10T10:54:16.316Z,55.90
2019-02-10T10:57:01.629Z,55.90
2019-02-10T10:59:47.016Z,57.60
2019-02-10T11:02:32.312Z,57.20
2019-02-10T11:05:17.838Z,57.40
2019-02-10T11:08:03.018Z,56.90
2019-02-10T11:10:48.066Z,57.00
2019-02-10T11:13:33.586Z,57.00
2019-02-10T11:16:18.790Z,57.10
2019-02-10T11:19:04.222Z,57.40
2019-02-10T11:21:49.388Z,58.80
2019-02-10T11:24:34.525Z,59.10
2019-02-10T11:27:20.070Z,59.30
2019-02-10T11:30:08.850Z,59.30
2019-02-10T11:32:54.516Z,59.50
2019-02-10T11:35:39.309Z,60.30
2019-02-10T11:38:24.471Z,60.60
2019-02-10T11:41:09.913Z,61.00
2019-02-10T11:43:54.831Z,61.20
2019-02-10T11:46:40.228Z,61.70
2019-02-10T11:49:25.650Z,62.00
2019-02-10T11:52:10.921Z,62.20
2019-02-10T11:54:56.039Z,62.10
2019-02-10T11:57:41.477Z,62.30
2019-02-10T12:00:26.855Z,62.30
2019-02-10T12:03:12.131Z,62.40
2019-02-10T12:05:57.466Z,62.10
2019-02-10T12:08:42.801Z,62.20
2019-02-10T12:11:28.381Z,62.30
2019-02-10T12:14:14.096Z,61.90
2019-02-10T12:17:00.578Z,61.80
2019-02-10T12:19:45.606Z,61.90
2019-02-10T12:22:30.806Z,62.10
2019-02-10T12:25:16.580Z,61.10
2019-02-10T12:28:02.348Z,61.80
2019-02-10T12:30:47.930Z,62.50
2019-02-10T12:33:33.486Z,62.80
2019-02-10T12:36:18.602Z,63.00
2019-02-10T12:39:04.706Z,63.30
2019-02-10T12:41:49.921Z,63.50
2019-02-10T12:44:35.082Z,63.40
2019-02-10T12:47:22.237Z,62.90
2019-02-10T12:50:13.347Z,63.30
2019-02-10T12:52:58.363Z,63.50
2019-02-10T12:55:43.946Z,63.90
2019-02-10T12:58:29.247Z,63.70
2019-02-10T13:01:14.220Z,63.90
2019-02-10T13:03:59.427Z,64.50
2019-02-10T13:06:44.897Z,64.70
2019-02-10T13:09:30.162Z,64.60
2019-02-10T13:12:35.346Z,64.60
2019-02-10T13:15:20.877Z,64.90
2019-02-10T13:18:06.288Z,65.10
2019-02-10T13:20:51.564Z,65.40
2019-02-10T13:23:36.716Z,65.50
2019-02-10T13:26:22.050Z,65.90
2019-02-10T13:29:07.086Z,66.10
2019-02-10T13:31:54.620Z,66.30
2019-02-10T13:34:39.432Z,66.20
2019-02-10T13:37:24.617Z,66.20
2019-02-10T13:40:16.730Z,66.40
2019-02-10T13:43:00.018Z,66.50
2019-02-10T13:45:46.109Z,66.50
2019-02-10T13:48:31.286Z,66.10
2019-02-10T13:51:16.353Z,66.40
2019-02-10T13:54:01.843Z,66.40
2019-02-10T13:56:47.382Z,66.40
2019-02-10T13:59:33.315Z,66.50
2019-02-10T14:02:18.812Z,66.50
2019-02-10T14:05:05.252Z,66.40
2019-02-10T14:07:51.042Z,66.40
2019-02-10T14:10:36.207Z,66.20
2019-02-10T14:13:21.176Z,66.50
2019-02-10T14:16:06.578Z,65.80
2019-02-10T14:18:51.751Z,65.30
2019-02-10T14:21:37.120Z,65.40
2019-02-10T14:24:22.102Z,65.30
2019-02-10T14:27:07.632Z,65.20
2019-02-10T14:29:52.674Z,65.40
2019-02-10T14:32:37.867Z,65.60
2019-02-10T14:35:22.898Z,65.40
2019-02-10T14:38:08.164Z,65.80
2019-02-10T14:40:53.423Z,66.10
2019-02-10T14:43:39.059Z,66.30
2019-02-10T14:46:24.156Z,66.60
2019-02-10T14:49:10.635Z,66.90
2019-02-10T14:51:56.660Z,67.00
2019-02-10T14:54:42.223Z,67.20
2019-02-10T14:57:27.916Z,67.30
2019-02-10T15:00:15.604Z,67.00
2019-02-10T15:03:00.217Z,67.10
2019-02-10T15:05:45.452Z,67.20
2019-02-10T15:08:30.808Z,67.30
2019-02-10T15:11:15.966Z,67.60
2019-02-10T15:14:01.536Z,67.90
2019-02-10T15:16:47.114Z,67.80
2019-02-10T15:19:32.325Z,68.70
2019-02-10T15:22:17.787Z,69.00
2019-02-10T15:25:05.919Z,69.50
2019-02-10T15:27:51.272Z,70.30
2019-02-10T15:30:36.152Z,70.50
2019-02-10T15:33:21.467Z,71.30
2019-02-10T15:36:07.062Z,72.20
2019-02-10T15:38:51.694Z,73.00
2019-02-10T15:41:36.951Z,73.70
2019-02-10T15:44:22.486Z,74.70
2019-02-10T15:47:07.951Z,75.00
2019-02-10T15:49:53.373Z,75.60
2019-02-10T15:52:38.550Z,76.30
2019-02-10T15:55:23.799Z,76.70
2019-02-10T15:58:09.399Z,77.30
2019-02-10T16:00:55.125Z,77.70
2019-02-10T16:03:40.403Z,77.60
2019-02-10T16:06:25.379Z,78.50
2019-02-10T16:09:10.426Z,78.70
2019-02-10T16:11:55.469Z,78.90
2019-02-10T16:14:41.542Z,78.70
2019-02-10T16:17:26.788Z,79.60
2019-02-10T16:20:13.961Z,79.30
2019-02-10T16:22:59.140Z,79.60
2019-02-10T16:25:44.067Z,79.50
2019-02-10T16:28:29.246Z,79.50
2019-02-10T16:31:14.787Z,79.70
2019-02-10T16:33:59.760Z,79.60
2019-02-10T16:36:45.395Z,79.60
2019-02-10T16:39:30.419Z,79.80
2019-02-10T16:42:17.646Z,79.50
2019-02-10T16:45:06.109Z,79.50
2019-02-10T16:47:51.060Z,79.80
2019-02-10T16:50:36.154Z,79.30
2019-02-10T16:53:21.166Z,79.50
2019-02-10T16:56:06.596Z,79.10
2019-02-10T16:58:51.673Z,79.10
2019-02-10T17:01:37.480Z,79.20
2019-02-10T17:04:22.607Z,78.80
2019-02-10T17:07:07.567Z,78.60
2019-02-10T17:09:52.959Z,78.00
2019-02-10T17:12:38.758Z,78.50
2019-02-10T17:15:24.086Z,77.70
2019-02-10T17:18:09.443Z,77.60
2019-02-10T17:20:54.501Z,78.00
2019-02-10T17:23:39.796Z,77.90
2019-02-10T17:26:25.175Z,77.50
2019-02-10T17:29:10.214Z,77.70
2019-02-10T17:31:55.472Z,78.10
2019-02-10T17:34:40.746Z,78.30
2019-02-10T17:37:26.018Z,79.30
2019-02-10T17:40:30.029Z,79.50
2019-02-10T17:43:15.238Z,79.70
2019-02-10T17:46:00.852Z,80.60
2019-02-10T17:48:45.793Z,80.70
2019-02-10T17:51:31.533Z,80.70
2019-02-10T17:54:16.686Z,81.10
2019-02-10T17:57:02.219Z,81.40
2019-02-10T17:59:48.082Z,81.80
2019-02-10T18:02:33.115Z,81.80
2019-02-10T18:05:18.328Z,81.90
2019-02-10T18:08:03.558Z,81.90
2019-02-10T18:10:48.671Z,81.80
2019-02-10T18:13:33.792Z,82.10
2019-02-10T18:16:38.021Z,82.40
2019-02-10T18:19:30.921Z,82.90
2019-02-10T18:22:18.289Z,82.90
2019-02-10T18:25:06.883Z,83.00
2019-02-10T18:28:04.272Z,83.30
2019-02-10T18:30:51.055Z,83.50
2019-02-10T18:34:03.234Z,83.90
2019-02-10T18:37:06.472Z,84.00
2019-02-10T18:40:11.744Z,84.10
2019-02-10T18:42:59.190Z,84.50
2019-02-10T18:45:46.127Z,84.80
2019-02-10T18:48:33.183Z,84.60
2019-02-10T18:51:20.156Z,84.60
2019-02-10T18:54:18.330Z,85.00
2019-02-10T18:57:15.279Z,85.00
2019-02-10T19:00:10.822Z,85.10
2019-02-10T19:03:12.791Z,85.40
2019-02-10T19:06:04.086Z,85.50
2019-02-10T19:08:53.607Z,85.40
2019-02-10T19:11:47.297Z,85.40
2019-02-10T19:14:30.150Z,85.30
2019-02-10T19:17:35.426Z,85.00
2019-02-10T19:20:25.336Z,85.20
2019-02-10T19:23:12.484Z,85.00
2019-02-10T19:26:02.258Z,85.10
2019-02-10T19:28:49.480Z,85.00
2019-02-10T19:31:39.345Z,85.00
2019-02-10T19:34:42.972Z,85.00
2019-02-10T19:37:30.920Z,84.60
2019-02-10T19:40:26.664Z,84.80
2019-02-10T19:43:16.537Z,84.60
2019-02-10T19:46:03.804Z,84.40
2019-02-10T19:49:07.288Z,84.50
2019-02-10T19:52:11.011Z,84.80
2019-02-10T19:55:00.367Z,85.10
2019-02-10T19:58:02.771Z,85.00
2019-02-10T20:00:57.946Z,85.10
2019-02-10T20:03:45.313Z,84.50
2019-02-10T20:06:34.845Z,84.80
2019-02-10T20:09:24.124Z,84.90
2019-02-10T20:12:21.877Z,85.00
2019-02-10T20:15:19.235Z,84.70
2019-02-10T20:18:09.138Z,84.50
2019-02-10T20:21:00.569Z,84.80
2019-02-10T20:23:48.247Z,84.80
2019-02-10T20:26:35.362Z,84.50
2019-02-10T20:29:22.574Z,84.50
2019-02-10T20:32:19.828Z,84.50
2019-02-10T20:35:24.456Z,84.50
2019-02-10T20:38:28.040Z,84.10
2019-02-10T20:41:31.663Z,84.00
2019-02-10T20:44:35.807Z,85.00
2019-02-10T20:47:24.458Z,84.60
2019-02-10T20:50:27.767Z,84.50
2019-02-10T20:53:17.643Z,84.20
2019-02-10T20:56:13.369Z,84.00
2019-02-10T20:59:07.057Z,83.70
2019-02-10T21:02:03.379Z,83.90
2019-02-10T21:04:50.665Z,83.60
2019-02-10T21:07:37.519Z,83.50
2019-02-10T21:10:33.154Z,83.30
2019-02-10T21:13:32.433Z,83.00
2019-02-10T21:16:34.515Z,82.60
2019-02-10T21:19:22.732Z,82.60
2019-02-10T21:22:27.955Z,82.60
2019-02-10T21:25:32.500Z,83.00
2019-02-10T21:28:37.656Z,82.70
2019-02-10T21:31:28.123Z,82.60
2019-02-10T21:34:15.282Z,82.60
2019-02-10T21:37:07.782Z,82.90
2019-02-10T21:39:55.838Z,82.60
2019-02-10T21:42:43.171Z,82.50
2019-02-10T21:45:36.570Z,82.90
2019-02-10T21:48:24.117Z,82.70
2019-02-10T21:51:09.357Z,82.40
2019-02-10T21:53:55.300Z,82.10
2019-02-10T21:56:40.365Z,82.30
2019-02-10T21:59:25.843Z,81.90
2019-02-10T22:02:10.869Z,82.10
2019-02-10T22:04:56.190Z,82.00
2019-02-10T22:07:41.574Z,81.80
2019-02-10T22:10:26.614Z,81.90
2019-02-10T22:13:12.022Z,81.40
2019-02-10T22:15:57.141Z,81.30
2019-02-10T22:18:42.452Z,81.20
2019-02-10T22:21:28.140Z,81.20
2019-02-10T22:24:14.228Z,81.00
2019-02-10T22:26:59.694Z,81.00
2019-02-10T22:29:45.017Z,81.00
2019-02-10T22:32:30.161Z,80.50
2019-02-10T22:35:15.557Z,80.60
2019-02-10T22:38:00.817Z,80.50
2019-02-10T22:40:46.004Z,80.40
2019-02-10T22:43:31.900Z,80.00
2019-02-10T22:46:17.217Z,79.80
2019-02-10T22:49:02.309Z,79.80
2019-02-10T22:51:47.607Z,79.70
2019-02-10T22:54:34.065Z,79.60
2019-02-10T22:57:18.927Z,79.30
2019-02-10T23:00:07.947Z,79.30
2019-02-10T23:02:52.913Z,79.30
2019-02-10T23:05:37.849Z,79.40
2019-02-10T23:08:23.388Z,79.50
2019-02-10T23:11:08.357Z,79.10
2019-02-10T23:13:53.547Z,79.00
2019-02-10T23:16:38.309Z,79.00
2019-02-10T23:19:23.715Z,78.70
2019-02-10T23:22:09.069Z,78.60
2019-02-10T23:24:54.043Z,78.70
2019-02-10T23:27:39.062Z,78.70
2019-02-10T23:30:24.215Z,78.60
2019-02-10T23:33:08.995Z,78.50
2019-02-10T23:35:54.090Z,78.30
2019-02-10T23:38:39.385Z,78.30
2019-02-10T23:41:24.675Z,78.30
2019-02-10T23:44:10.032Z,78.20
2019-02-10T23:46:55.363Z,77.90
2019-02-10T23:49:40.425Z,77.90
2019-02-10T23:52:25.987Z,77.90
2019-02-10T23:55:11.051Z,78.00
2019-02-10T23:57:56.329Z,77.90
